sensor_id;sensor_type;location;lat;lon;timestamp;temperature;humidity
1025;DHT22;501;48.214;11.350;2023-07-29T00:02:00;18.20;71.20
1025;DHT22;501;48.214;11.350;2023-07-29T00:04:25;18.10;71.20
1025;DHT22;501;48.214;11.350;2023-07-29T00:06:51;18.10;72.00
1025;DHT22;501;48.214;11.350;2023-07-29T00:09:16;18.10;72.70
1025;DHT22;501;48.214;11.350;2023-07-29T00:11:42;18.10;72.70
1025;DHT22;501;48.214;11.350;2023-07-29T00:14:08;18.10;72.90
1025;DHT22;501;48.214;11.350;2023-07-29T00:16:33;18.00;73.50
1025;DHT22;501;48.214;11.350;2023-07-29T00:18:59;18.00;73.60
1025;DHT22;501;48.214;11.350;2023-07-29T00:21:24;18.00;73.50
1025;DHT22;501;48.214;11.350;2023-07-29T00:23:50;18.00;73.90
1025;DHT22;501;48.214;11.350;2023-07-29T00:26:15;18.00;74.40
1025;DHT22;501;48.214;11.350;2023-07-29T00:28:41;18.00;74.50
1025;DHT22;501;48.214;11.350;2023-07-29T00:31:07;18.00;74.00
1025;DHT22;501;48.214;11.350;2023-07-29T00:33:32;18.00;74.00
1025;DHT22;501;48.214;11.350;2023-07-29T00:35:58;18.00;74.60
1025;DHT22;501;48.214;11.350;2023-07-29T00:38:27;18.00;74.80
1025;DHT22;501;48.214;11.350;2023-07-29T00:40:52;18.00;75.50
1025;DHT22;501;48.214;11.350;2023-07-29T00:43:18;18.00;74.90
1025;DHT22;501;48.214;11.350;2023-07-29T00:45:44;18.00;75.30
1025;DHT22;501;48.214;11.350;2023-07-29T00:48:11;18.00;75.20
1025;DHT22;501;48.214;11.350;2023-07-29T00:50:37;18.00;74.80
1025;DHT22;501;48.214;11.350;2023-07-29T00:53:03;18.00;75.20
1025;DHT22;501;48.214;11.350;2023-07-29T00:55:28;17.90;75.00
1025;DHT22;501;48.214;11.350;2023-07-29T00:57:54;17.90;74.60
1025;DHT22;501;48.214;11.350;2023-07-29T01:00:21;17.90;74.30
1025;DHT22;501;48.214;11.350;2023-07-29T01:02:46;17.90;74.20
1025;DHT22;501;48.214;11.350;2023-07-29T01:05:13;17.90;74.50
1025;DHT22;501;48.214;11.350;2023-07-29T01:13:06;17.80;73.30
1025;DHT22;501;48.214;11.350;2023-07-29T01:15:52;17.80;73.30
1025;DHT22;501;48.214;11.350;2023-07-29T01:18:26;17.80;73.30
1025;DHT22;501;48.214;11.350;2023-07-29T01:20:54;17.70;73.10
1025;DHT22;501;48.214;11.350;2023-07-29T01:23:30;17.70;73.20
1025;DHT22;501;48.214;11.350;2023-07-29T01:25:55;17.60;73.00
1025;DHT22;501;48.214;11.350;2023-07-29T01:28:24;17.60;72.90
1025;DHT22;501;48.214;11.350;2023-07-29T01:30:54;17.60;72.00
1025;DHT22;501;48.214;11.350;2023-07-29T01:33:26;17.50;71.90
1025;DHT22;501;48.214;11.350;2023-07-29T01:36:03;17.50;71.90
1025;DHT22;501;48.214;11.350;2023-07-29T01:38:36;17.50;72.40
1025;DHT22;501;48.214;11.350;2023-07-29T01:41:06;17.40;72.90
1025;DHT22;501;48.214;11.350;2023-07-29T01:43:33;17.40;73.30
1025;DHT22;501;48.214;11.350;2023-07-29T01:46:00;17.40;71.70
1025;DHT22;501;48.214;11.350;2023-07-29T01:48:26;17.40;72.00
1025;DHT22;501;48.214;11.350;2023-07-29T01:50:53;17.40;72.90
1025;DHT22;501;48.214;11.350;2023-07-29T01:53:18;17.30;72.90
1025;DHT22;501;48.214;11.350;2023-07-29T01:55:44;17.30;72.90
1025;DHT22;501;48.214;11.350;2023-07-29T01:58:10;17.30;72.90
1025;DHT22;501;48.214;11.350;2023-07-29T02:00:36;17.30;72.30
1025;DHT22;501;48.214;11.350;2023-07-29T02:03:02;17.30;72.20
1025;DHT22;501;48.214;11.350;2023-07-29T02:05:27;17.30;72.80
1025;DHT22;501;48.214;11.350;2023-07-29T02:07:53;17.20;72.80
1025;DHT22;501;48.214;11.350;2023-07-29T02:10:18;17.20;72.80
1025;DHT22;501;48.214;11.350;2023-07-29T02:12:44;17.20;72.80
1025;DHT22;501;48.214;11.350;2023-07-29T02:15:10;17.20;72.80
1025;DHT22;501;48.214;11.350;2023-07-29T02:17:36;17.20;73.40
1025;DHT22;501;48.214;11.350;2023-07-29T02:20:02;17.10;72.60
1025;DHT22;501;48.214;11.350;2023-07-29T02:22:29;17.10;72.10
1025;DHT22;501;48.214;11.350;2023-07-29T02:24:55;17.10;71.70
1025;DHT22;501;48.214;11.350;2023-07-29T02:27:20;17.10;71.70
1025;DHT22;501;48.214;11.350;2023-07-29T02:29:46;17.00;71.60
1025;DHT22;501;48.214;11.350;2023-07-29T02:32:11;17.00;72.50
1025;DHT22;501;48.214;11.350;2023-07-29T02:34:37;17.00;72.50
1025;DHT22;501;48.214;11.350;2023-07-29T02:37:03;17.00;72.40
1025;DHT22;501;48.214;11.350;2023-07-29T02:39:28;16.90;72.40
1025;DHT22;501;48.214;11.350;2023-07-29T02:41:54;17.00;73.20
1025;DHT22;501;48.214;11.350;2023-07-29T02:44:21;16.90;72.50
1025;DHT22;501;48.214;11.350;2023-07-29T02:46:47;16.90;72.40
1025;DHT22;501;48.214;11.350;2023-07-29T02:49:12;16.90;72.40
1025;DHT22;501;48.214;11.350;2023-07-29T02:51:38;16.90;71.70
1025;DHT22;501;48.214;11.350;2023-07-29T02:54:03;16.80;71.10
1025;DHT22;501;48.214;11.350;2023-07-29T02:56:29;16.80;71.20
1025;DHT22;501;48.214;11.350;2023-07-29T02:58:56;16.80;72.30
1025;DHT22;501;48.214;11.350;2023-07-29T03:01:23;16.80;72.30
1025;DHT22;501;48.214;11.350;2023-07-29T03:03:50;16.80;72.40
1025;DHT22;501;48.214;11.350;2023-07-29T03:06:16;16.80;73.30
1025;DHT22;501;48.214;11.350;2023-07-29T03:08:41;16.80;74.20
1025;DHT22;501;48.214;11.350;2023-07-29T03:11:09;16.80;73.60
1025;DHT22;501;48.214;11.350;2023-07-29T03:13:35;16.70;74.20
1025;DHT22;501;48.214;11.350;2023-07-29T03:16:09;16.70;75.00
1025;DHT22;501;48.214;11.350;2023-07-29T03:18:35;16.80;75.80
1025;DHT22;501;48.214;11.350;2023-07-29T03:21:01;16.80;76.20
1025;DHT22;501;48.214;11.350;2023-07-29T03:23:28;16.80;76.80
1025;DHT22;501;48.214;11.350;2023-07-29T03:25:58;16.80;77.10
1025;DHT22;501;48.214;11.350;2023-07-29T03:28:26;16.80;77.90
1025;DHT22;501;48.214;11.350;2023-07-29T03:30:53;16.80;78.90
1025;DHT22;501;48.214;11.350;2023-07-29T03:33:18;16.80;79.40
1025;DHT22;501;48.214;11.350;2023-07-29T03:35:44;16.80;79.70
1025;DHT22;501;48.214;11.350;2023-07-29T03:38:10;16.80;80.10
1025;DHT22;501;48.214;11.350;2023-07-29T03:40:37;16.90;80.70
1025;DHT22;501;48.214;11.350;2023-07-29T03:43:03;16.90;80.70
1025;DHT22;501;48.214;11.350;2023-07-29T03:45:28;16.90;80.40
1025;DHT22;501;48.214;11.350;2023-07-29T03:47:54;16.90;80.60
1025;DHT22;501;48.214;11.350;2023-07-29T03:50:19;16.90;80.70
1025;DHT22;501;48.214;11.350;2023-07-29T03:52:45;17.00;80.80
1025;DHT22;501;48.214;11.350;2023-07-29T03:55:11;17.00;80.80
1025;DHT22;501;48.214;11.350;2023-07-29T03:57:36;17.00;80.50
1025;DHT22;501;48.214;11.350;2023-07-29T04:00:02;17.00;79.80
1025;DHT22;501;48.214;11.350;2023-07-29T04:02:28;17.00;78.70
1025;DHT22;501;48.214;11.350;2023-07-29T04:04:54;17.10;78.40
1025;DHT22;501;48.214;11.350;2023-07-29T04:07:19;17.10;79.10
1025;DHT22;501;48.214;11.350;2023-07-29T04:09:45;17.10;79.00
1025;DHT22;501;48.214;11.350;2023-07-29T04:12:11;17.10;77.80
1025;DHT22;501;48.214;11.350;2023-07-29T04:14:37;17.10;77.40
1025;DHT22;501;48.214;11.350;2023-07-29T04:17:02;17.10;76.30
1025;DHT22;501;48.214;11.350;2023-07-29T04:19:28;17.10;75.40
1025;DHT22;501;48.214;11.350;2023-07-29T04:21:53;17.10;74.40
1025;DHT22;501;48.214;11.350;2023-07-29T04:24:19;17.10;74.80
1025;DHT22;501;48.214;11.350;2023-07-29T04:26:45;17.10;74.00
1025;DHT22;501;48.214;11.350;2023-07-29T04:29:11;17.10;73.70
1025;DHT22;501;48.214;11.350;2023-07-29T04:31:37;17.10;74.00
1025;DHT22;501;48.214;11.350;2023-07-29T04:34:05;17.00;74.10
1025;DHT22;501;48.214;11.350;2023-07-29T04:36:30;17.00;74.50
1025;DHT22;501;48.214;11.350;2023-07-29T04:38:56;17.00;75.10
1025;DHT22;501;48.214;11.350;2023-07-29T04:41:21;17.10;76.30
1025;DHT22;501;48.214;11.350;2023-07-29T04:43:47;17.10;77.00
1025;DHT22;501;48.214;11.350;2023-07-29T04:46:15;17.10;77.80
1025;DHT22;501;48.214;11.350;2023-07-29T04:48:40;17.20;79.00
1025;DHT22;501;48.214;11.350;2023-07-29T04:51:06;17.20;79.00
1025;DHT22;501;48.214;11.350;2023-07-29T04:53:32;17.30;79.90
1025;DHT22;501;48.214;11.350;2023-07-29T04:55:58;17.30;80.50
1025;DHT22;501;48.214;11.350;2023-07-29T04:58:23;17.40;80.50
1025;DHT22;501;48.214;11.350;2023-07-29T05:00:49;17.50;81.20
1025;DHT22;501;48.214;11.350;2023-07-29T05:03:14;17.60;82.00
1025;DHT22;501;48.214;11.350;2023-07-29T05:05:40;17.70;81.20
1025;DHT22;501;48.214;11.350;2023-07-29T05:08:06;17.80;81.20
1025;DHT22;501;48.214;11.350;2023-07-29T05:10:31;17.90;81.40
1025;DHT22;501;48.214;11.350;2023-07-29T05:12:57;18.00;81.40
1025;DHT22;501;48.214;11.350;2023-07-29T05:15:23;18.10;81.10
1025;DHT22;501;48.214;11.350;2023-07-29T05:17:48;18.20;80.40
1025;DHT22;501;48.214;11.350;2023-07-29T05:20:14;18.30;79.20
1025;DHT22;501;48.214;11.350;2023-07-29T05:22:39;18.40;78.00
1025;DHT22;501;48.214;11.350;2023-07-29T05:25:05;18.40;76.20
1025;DHT22;501;48.214;11.350;2023-07-29T05:27:31;18.50;76.80
1025;DHT22;501;48.214;11.350;2023-07-29T05:29:57;18.60;78.50
1025;DHT22;501;48.214;11.350;2023-07-29T05:32:22;18.70;78.00
1025;DHT22;501;48.214;11.350;2023-07-29T05:34:48;18.70;74.40
1025;DHT22;501;48.214;11.350;2023-07-29T05:37:14;18.80;74.50
1025;DHT22;501;48.214;11.350;2023-07-29T05:39:39;18.80;74.20
1025;DHT22;501;48.214;11.350;2023-07-29T05:42:05;18.90;73.40
1025;DHT22;501;48.214;11.350;2023-07-29T05:44:31;18.90;73.00
1025;DHT22;501;48.214;11.350;2023-07-29T05:46:57;18.90;73.50
1025;DHT22;501;48.214;11.350;2023-07-29T05:49:23;18.90;71.90
1025;DHT22;501;48.214;11.350;2023-07-29T05:51:48;18.90;72.20
1025;DHT22;501;48.214;11.350;2023-07-29T05:54:17;18.90;70.40
1025;DHT22;501;48.214;11.350;2023-07-29T05:56:42;18.90;71.40
1025;DHT22;501;48.214;11.350;2023-07-29T05:59:08;18.90;71.10
1025;DHT22;501;48.214;11.350;2023-07-29T06:01:34;18.90;71.00
1025;DHT22;501;48.214;11.350;2023-07-29T06:04:00;18.90;71.50
1025;DHT22;501;48.214;11.350;2023-07-29T06:06:26;18.90;72.00
1025;DHT22;501;48.214;11.350;2023-07-29T06:08:52;19.00;72.20
1025;DHT22;501;48.214;11.350;2023-07-29T06:11:17;19.00;71.60
1025;DHT22;501;48.214;11.350;2023-07-29T06:13:43;19.00;71.90
1025;DHT22;501;48.214;11.350;2023-07-29T06:16:09;19.10;70.90
1025;DHT22;501;48.214;11.350;2023-07-29T06:18:34;19.10;71.10
1025;DHT22;501;48.214;11.350;2023-07-29T06:21:00;19.20;71.90
1025;DHT22;501;48.214;11.350;2023-07-29T06:23:26;19.30;71.90
1025;DHT22;501;48.214;11.350;2023-07-29T06:25:51;19.40;69.10
1025;DHT22;501;48.214;11.350;2023-07-29T06:28:17;19.40;70.20
1025;DHT22;501;48.214;11.350;2023-07-29T06:30:42;19.50;70.40
1025;DHT22;501;48.214;11.350;2023-07-29T06:33:08;19.60;70.80
1025;DHT22;501;48.214;11.350;2023-07-29T06:35:34;19.70;70.40
1025;DHT22;501;48.214;11.350;2023-07-29T06:38:00;19.80;69.50
1025;DHT22;501;48.214;11.350;2023-07-29T06:40:25;19.80;66.80
1025;DHT22;501;48.214;11.350;2023-07-29T06:42:51;19.80;66.70
1025;DHT22;501;48.214;11.350;2023-07-29T06:45:17;19.70;67.20
1025;DHT22;501;48.214;11.350;2023-07-29T06:47:42;19.60;66.50
1025;DHT22;501;48.214;11.350;2023-07-29T06:50:08;19.60;69.70
1025;DHT22;501;48.214;11.350;2023-07-29T06:52:34;19.40;73.80
1025;DHT22;501;48.214;11.350;2023-07-29T06:55:00;19.20;76.10
1025;DHT22;501;48.214;11.350;2023-07-29T06:57:25;19.00;77.40
1025;DHT22;501;48.214;11.350;2023-07-29T06:59:51;18.90;80.00
1025;DHT22;501;48.214;11.350;2023-07-29T07:02:17;18.80;83.30
1025;DHT22;501;48.214;11.350;2023-07-29T07:04:42;18.80;85.40
1025;DHT22;501;48.214;11.350;2023-07-29T07:07:08;18.70;87.40
1025;DHT22;501;48.214;11.350;2023-07-29T07:09:33;18.70;89.80
1025;DHT22;501;48.214;11.350;2023-07-29T07:11:59;18.70;89.10
1025;DHT22;501;48.214;11.350;2023-07-29T07:14:25;18.70;91.00
1025;DHT22;501;48.214;11.350;2023-07-29T07:16:51;18.80;91.80
1025;DHT22;501;48.214;11.350;2023-07-29T07:19:17;18.80;91.30
1025;DHT22;501;48.214;11.350;2023-07-29T07:21:43;18.80;90.90
1025;DHT22;501;48.214;11.350;2023-07-29T07:24:08;18.80;91.20
1025;DHT22;501;48.214;11.350;2023-07-29T07:26:34;18.80;90.20
1025;DHT22;501;48.214;11.350;2023-07-29T07:29:00;18.80;90.10
1025;DHT22;501;48.214;11.350;2023-07-29T07:31:25;18.80;89.30
1025;DHT22;501;48.214;11.350;2023-07-29T07:33:51;18.80;90.90
1025;DHT22;501;48.214;11.350;2023-07-29T07:36:16;18.90;91.80
1025;DHT22;501;48.214;11.350;2023-07-29T07:38:42;19.00;91.50
1025;DHT22;501;48.214;11.350;2023-07-29T07:41:08;19.00;91.20
1025;DHT22;501;48.214;11.350;2023-07-29T07:43:33;19.10;89.10
1025;DHT22;501;48.214;11.350;2023-07-29T07:46:00;19.20;89.40
1025;DHT22;501;48.214;11.350;2023-07-29T07:48:27;19.20;89.10
1025;DHT22;501;48.214;11.350;2023-07-29T07:50:53;19.30;88.00
1025;DHT22;501;48.214;11.350;2023-07-29T07:53:19;19.30;90.40
1025;DHT22;501;48.214;11.350;2023-07-29T07:55:45;19.50;91.00
1025;DHT22;501;48.214;11.350;2023-07-29T07:58:11;19.60;90.80
1025;DHT22;501;48.214;11.350;2023-07-29T08:00:37;19.70;86.90
1025;DHT22;501;48.214;11.350;2023-07-29T08:03:03;19.80;85.90
1025;DHT22;501;48.214;11.350;2023-07-29T08:05:29;19.80;86.40
1025;DHT22;501;48.214;11.350;2023-07-29T08:07:54;19.90;86.10
1025;DHT22;501;48.214;11.350;2023-07-29T08:10:20;20.00;88.10
1025;DHT22;501;48.214;11.350;2023-07-29T08:12:46;20.10;87.40
1025;DHT22;501;48.214;11.350;2023-07-29T08:15:11;20.20;86.20
1025;DHT22;501;48.214;11.350;2023-07-29T08:17:37;20.30;86.40
1025;DHT22;501;48.214;11.350;2023-07-29T08:20:02;20.40;82.20
1025;DHT22;501;48.214;11.350;2023-07-29T08:22:28;20.50;85.10
1025;DHT22;501;48.214;11.350;2023-07-29T08:24:54;20.60;84.20
1025;DHT22;501;48.214;11.350;2023-07-29T08:27:19;20.70;81.90
1025;DHT22;501;48.214;11.350;2023-07-29T08:29:45;20.80;74.20
1025;DHT22;501;48.214;11.350;2023-07-29T08:32:10;20.80;76.10
1025;DHT22;501;48.214;11.350;2023-07-29T08:34:36;20.80;76.80
1025;DHT22;501;48.214;11.350;2023-07-29T08:37:02;20.90;78.90
1025;DHT22;501;48.214;11.350;2023-07-29T08:39:27;21.00;80.00
1025;DHT22;501;48.214;11.350;2023-07-29T08:42:04;21.00;78.20
1025;DHT22;501;48.214;11.350;2023-07-29T08:44:41;21.10;77.00
1025;DHT22;501;48.214;11.350;2023-07-29T08:47:07;21.20;77.30
1025;DHT22;501;48.214;11.350;2023-07-29T08:49:34;21.30;75.90
1025;DHT22;501;48.214;11.350;2023-07-29T08:52:01;21.30;66.20
1025;DHT22;501;48.214;11.350;2023-07-29T08:54:27;21.40;68.10
1025;DHT22;501;48.214;11.350;2023-07-29T08:56:54;21.40;69.10
1025;DHT22;501;48.214;11.350;2023-07-29T08:59:20;21.50;70.60
1025;DHT22;501;48.214;11.350;2023-07-29T09:01:47;21.50;63.00
1025;DHT22;501;48.214;11.350;2023-07-29T09:04:12;21.50;65.20
1025;DHT22;501;48.214;11.350;2023-07-29T09:06:39;21.40;65.40
1025;DHT22;501;48.214;11.350;2023-07-29T09:09:06;21.40;63.30
1025;DHT22;501;48.214;11.350;2023-07-29T09:11:33;21.50;62.50
1025;DHT22;501;48.214;11.350;2023-07-29T09:13:58;21.50;67.60
1025;DHT22;501;48.214;11.350;2023-07-29T09:16:24;21.50;70.20
1025;DHT22;501;48.214;11.350;2023-07-29T09:18:51;21.60;65.40
1025;DHT22;501;48.214;11.350;2023-07-29T09:21:17;21.60;63.30
1025;DHT22;501;48.214;11.350;2023-07-29T09:23:44;21.70;61.60
1025;DHT22;501;48.214;11.350;2023-07-29T09:26:10;21.80;56.80
1025;DHT22;501;48.214;11.350;2023-07-29T09:28:38;21.80;58.50
1025;DHT22;501;48.214;11.350;2023-07-29T09:31:04;21.90;58.90
1025;DHT22;501;48.214;11.350;2023-07-29T09:33:34;21.90;57.80
1025;DHT22;501;48.214;11.350;2023-07-29T09:36:09;22.00;59.10
1025;DHT22;501;48.214;11.350;2023-07-29T09:38:35;22.10;56.30
1025;DHT22;501;48.214;11.350;2023-07-29T09:41:01;22.20;58.20
1025;DHT22;501;48.214;11.350;2023-07-29T09:43:32;22.30;60.20
1025;DHT22;501;48.214;11.350;2023-07-29T09:46:05;22.50;56.00
1025;DHT22;501;48.214;11.350;2023-07-29T09:48:36;22.60;53.60
1025;DHT22;501;48.214;11.350;2023-07-29T09:51:12;22.70;55.50
1025;DHT22;501;48.214;11.350;2023-07-29T09:53:47;22.80;55.40
1025;DHT22;501;48.214;11.350;2023-07-29T09:56:14;23.00;55.80
1025;DHT22;501;48.214;11.350;2023-07-29T09:58:43;23.10;55.00
1025;DHT22;501;48.214;11.350;2023-07-29T10:01:09;23.20;55.00
1025;DHT22;501;48.214;11.350;2023-07-29T10:03:35;23.30;55.40
1025;DHT22;501;48.214;11.350;2023-07-29T10:06:02;23.40;55.40
1025;DHT22;501;48.214;11.350;2023-07-29T10:08:32;23.60;53.20
1025;DHT22;501;48.214;11.350;2023-07-29T10:11:01;23.70;50.00
1025;DHT22;501;48.214;11.350;2023-07-29T10:13:27;23.80;50.40
1025;DHT22;501;48.214;11.350;2023-07-29T10:15:56;23.90;51.90
1025;DHT22;501;48.214;11.350;2023-07-29T10:18:23;24.00;49.60
1025;DHT22;501;48.214;11.350;2023-07-29T10:20:52;24.10;51.80
1025;DHT22;501;48.214;11.350;2023-07-29T10:23:21;24.20;49.60
1025;DHT22;501;48.214;11.350;2023-07-29T10:25:54;24.40;52.90
1025;DHT22;501;48.214;11.350;2023-07-29T10:28:21;24.50;48.00
1025;DHT22;501;48.214;11.350;2023-07-29T10:30:51;24.60;46.30
1025;DHT22;501;48.214;11.350;2023-07-29T10:33:17;24.80;44.10
1025;DHT22;501;48.214;11.350;2023-07-29T10:35:43;24.90;44.30
1025;DHT22;501;48.214;11.350;2023-07-29T10:38:09;25.00;42.60
1025;DHT22;501;48.214;11.350;2023-07-29T10:40:55;25.00;40.40
1025;DHT22;501;48.214;11.350;2023-07-29T10:45:56;25.10;41.50
1025;DHT22;501;48.214;11.350;2023-07-29T10:51:23;25.20;40.00
1025;DHT22;501;48.214;11.350;2023-07-29T10:53:56;25.30;40.60
1025;DHT22;501;48.214;11.350;2023-07-29T10:56:37;25.20;37.80
1025;DHT22;501;48.214;11.350;2023-07-29T11:01:39;24.70;37.40
1025;DHT22;501;48.214;11.350;2023-07-29T11:15:31;23.40;40.20
1025;DHT22;501;48.214;11.350;2023-07-29T11:17:58;23.30;41.50
1025;DHT22;501;48.214;11.350;2023-07-29T11:20:26;23.20;41.20
1025;DHT22;501;48.214;11.350;2023-07-29T11:22:54;23.20;41.50
1025;DHT22;501;48.214;11.350;2023-07-29T11:25:21;23.20;40.70
1025;DHT22;501;48.214;11.350;2023-07-29T11:27:48;23.30;41.50
1025;DHT22;501;48.214;11.350;2023-07-29T11:30:15;23.50;42.30
1025;DHT22;501;48.214;11.350;2023-07-29T11:32:42;23.60;39.70
1025;DHT22;501;48.214;11.350;2023-07-29T11:35:10;23.80;40.80
1025;DHT22;501;48.214;11.350;2023-07-29T11:37:38;24.00;40.60
1025;DHT22;501;48.214;11.350;2023-07-29T11:40:05;24.30;39.00
1025;DHT22;501;48.214;11.350;2023-07-29T11:42:33;24.60;39.70
1025;DHT22;501;48.214;11.350;2023-07-29T11:45:02;24.90;39.10
1025;DHT22;501;48.214;11.350;2023-07-29T11:47:29;25.20;37.40
1025;DHT22;501;48.214;11.350;2023-07-29T11:49:58;25.40;37.40
1025;DHT22;501;48.214;11.350;2023-07-29T11:52:25;25.60;36.90
1025;DHT22;501;48.214;11.350;2023-07-29T11:54:52;25.80;36.10
1025;DHT22;501;48.214;11.350;2023-07-29T11:57:19;26.00;37.00
1025;DHT22;501;48.214;11.350;2023-07-29T11:59:46;26.20;37.00
1025;DHT22;501;48.214;11.350;2023-07-29T12:02:16;26.60;36.40
1025;DHT22;501;48.214;11.350;2023-07-29T12:04:44;26.90;36.70
1025;DHT22;501;48.214;11.350;2023-07-29T12:07:10;27.20;36.50
1025;DHT22;501;48.214;11.350;2023-07-29T12:09:37;27.60;37.10
1025;DHT22;501;48.214;11.350;2023-07-29T12:12:04;27.80;33.80
1025;DHT22;501;48.214;11.350;2023-07-29T12:14:30;27.60;35.10
1025;DHT22;501;48.214;11.350;2023-07-29T12:17:00;27.30;34.80
1025;DHT22;501;48.214;11.350;2023-07-29T12:19:35;27.00;35.90
1025;DHT22;501;48.214;11.350;2023-07-29T12:22:01;26.70;36.50
1025;DHT22;501;48.214;11.350;2023-07-29T12:24:29;26.30;37.30
1025;DHT22;501;48.214;11.350;2023-07-29T12:26:55;26.00;38.10
1025;DHT22;501;48.214;11.350;2023-07-29T12:29:21;25.80;40.40
1025;DHT22;501;48.214;11.350;2023-07-29T12:31:47;25.50;41.40
1025;DHT22;501;48.214;11.350;2023-07-29T12:34:21;25.00;43.70
1025;DHT22;501;48.214;11.350;2023-07-29T12:36:51;24.60;48.60
1025;DHT22;501;48.214;11.350;2023-07-29T12:39:21;24.20;51.40
1025;DHT22;501;48.214;11.350;2023-07-29T12:41:49;23.70;52.70
1025;DHT22;501;48.214;11.350;2023-07-29T12:44:15;23.40;53.60
1025;DHT22;501;48.214;11.350;2023-07-29T12:46:40;23.10;56.50
1025;DHT22;501;48.214;11.350;2023-07-29T12:49:06;23.00;59.30
1025;DHT22;501;48.214;11.350;2023-07-29T12:51:32;22.90;60.10
1025;DHT22;501;48.214;11.350;2023-07-29T12:53:58;22.80;62.40
1025;DHT22;501;48.214;11.350;2023-07-29T12:56:23;22.70;62.50
1025;DHT22;501;48.214;11.350;2023-07-29T12:58:49;22.70;65.00
1025;DHT22;501;48.214;11.350;2023-07-29T13:01:15;22.60;65.40
1025;DHT22;501;48.214;11.350;2023-07-29T13:03:47;22.60;66.00
1025;DHT22;501;48.214;11.350;2023-07-29T13:06:13;22.50;65.80
1025;DHT22;501;48.214;11.350;2023-07-29T13:08:39;22.50;67.50
1025;DHT22;501;48.214;11.350;2023-07-29T13:11:05;22.50;67.50
1025;DHT22;501;48.214;11.350;2023-07-29T13:13:31;22.40;66.30
1025;DHT22;501;48.214;11.350;2023-07-29T13:15:57;22.40;65.90
1025;DHT22;501;48.214;11.350;2023-07-29T13:18:23;22.30;70.20
1025;DHT22;501;48.214;11.350;2023-07-29T13:20:48;22.30;70.00
1025;DHT22;501;48.214;11.350;2023-07-29T13:23:15;22.40;70.90
1025;DHT22;501;48.214;11.350;2023-07-29T13:25:41;22.40;67.30
1025;DHT22;501;48.214;11.350;2023-07-29T13:28:07;22.30;66.40
1025;DHT22;501;48.214;11.350;2023-07-29T13:30:32;22.40;65.90
1025;DHT22;501;48.214;11.350;2023-07-29T13:32:58;22.30;66.10
1025;DHT22;501;48.214;11.350;2023-07-29T13:35:24;22.30;66.90
1025;DHT22;501;48.214;11.350;2023-07-29T13:37:50;22.30;67.50
1025;DHT22;501;48.214;11.350;2023-07-29T13:40:15;22.30;66.20
1025;DHT22;501;48.214;11.350;2023-07-29T13:42:41;22.20;65.60
1025;DHT22;501;48.214;11.350;2023-07-29T13:45:07;22.20;67.50
1025;DHT22;501;48.214;11.350;2023-07-29T13:47:33;22.30;69.00
1025;DHT22;501;48.214;11.350;2023-07-29T13:50:00;22.40;71.40
1025;DHT22;501;48.214;11.350;2023-07-29T13:52:25;22.40;69.30
1025;DHT22;501;48.214;11.350;2023-07-29T13:54:51;22.50;67.50
1025;DHT22;501;48.214;11.350;2023-07-29T13:57:17;22.50;66.60
1025;DHT22;501;48.214;11.350;2023-07-29T13:59:42;22.50;67.90
1025;DHT22;501;48.214;11.350;2023-07-29T14:02:08;22.50;68.10
1025;DHT22;501;48.214;11.350;2023-07-29T14:04:34;22.50;66.30
1025;DHT22;501;48.214;11.350;2023-07-29T14:07:00;22.40;68.80
1025;DHT22;501;48.214;11.350;2023-07-29T14:09:26;22.40;69.20
1025;DHT22;501;48.214;11.350;2023-07-29T14:11:54;22.40;68.50
1025;DHT22;501;48.214;11.350;2023-07-29T14:14:20;22.50;70.00
1025;DHT22;501;48.214;11.350;2023-07-29T14:16:46;22.50;69.10
1025;DHT22;501;48.214;11.350;2023-07-29T14:19:12;22.50;68.00
1025;DHT22;501;48.214;11.350;2023-07-29T14:21:38;22.40;69.40
1025;DHT22;501;48.214;11.350;2023-07-29T14:24:04;22.40;69.10
1025;DHT22;501;48.214;11.350;2023-07-29T14:26:30;22.30;69.00
1025;DHT22;501;48.214;11.350;2023-07-29T14:28:56;22.30;69.50
1025;DHT22;501;48.214;11.350;2023-07-29T14:31:21;22.20;70.50
1025;DHT22;501;48.214;11.350;2023-07-29T14:33:47;22.10;67.50
1025;DHT22;501;48.214;11.350;2023-07-29T14:36:18;21.90;55.70
1025;DHT22;501;48.214;11.350;2023-07-29T14:38:43;21.60;56.30
1025;DHT22;501;48.214;11.350;2023-07-29T14:41:09;21.40;58.60
1025;DHT22;501;48.214;11.350;2023-07-29T14:43:35;21.30;61.70
1025;DHT22;501;48.214;11.350;2023-07-29T14:46:01;21.20;64.90
1025;DHT22;501;48.214;11.350;2023-07-29T14:48:27;21.10;63.70
1025;DHT22;501;48.214;11.350;2023-07-29T14:50:53;21.10;64.20
1025;DHT22;501;48.214;11.350;2023-07-29T14:53:19;21.00;62.70
1025;DHT22;501;48.214;11.350;2023-07-29T14:55:45;20.90;63.20
1025;DHT22;501;48.214;11.350;2023-07-29T14:58:11;20.80;60.30
1025;DHT22;501;48.214;11.350;2023-07-29T15:00:36;20.60;58.60
1025;DHT22;501;48.214;11.350;2023-07-29T15:03:02;20.50;57.60
1025;DHT22;501;48.214;11.350;2023-07-29T15:05:28;20.30;57.30
1025;DHT22;501;48.214;11.350;2023-07-29T15:07:54;20.10;57.00
1025;DHT22;501;48.214;11.350;2023-07-29T15:10:20;20.10;60.50
1025;DHT22;501;48.214;11.350;2023-07-29T15:12:47;20.00;65.00
1025;DHT22;501;48.214;11.350;2023-07-29T15:15:12;20.00;64.70
1025;DHT22;501;48.214;11.350;2023-07-29T15:17:38;20.00;63.80
1025;DHT22;501;48.214;11.350;2023-07-29T15:20:05;20.00;65.80
1025;DHT22;501;48.214;11.350;2023-07-29T15:22:31;20.00;66.80
1025;DHT22;501;48.214;11.350;2023-07-29T15:24:59;20.00;66.80
1025;DHT22;501;48.214;11.350;2023-07-29T15:27:29;20.00;69.70
1025;DHT22;501;48.214;11.350;2023-07-29T15:29:55;20.00;70.20
1025;DHT22;501;48.214;11.350;2023-07-29T15:32:21;20.00;70.80
1025;DHT22;501;48.214;11.350;2023-07-29T15:34:48;20.20;73.50
1025;DHT22;501;48.214;11.350;2023-07-29T15:37:13;20.20;71.70
1025;DHT22;501;48.214;11.350;2023-07-29T15:39:39;20.20;68.30
1025;DHT22;501;48.214;11.350;2023-07-29T15:42:05;20.30;71.50
1025;DHT22;501;48.214;11.350;2023-07-29T15:44:31;20.40;69.90
1025;DHT22;501;48.214;11.350;2023-07-29T15:46:57;20.50;70.10
1025;DHT22;501;48.214;11.350;2023-07-29T15:49:23;20.60;68.50
1025;DHT22;501;48.214;11.350;2023-07-29T15:51:49;20.60;67.40
1025;DHT22;501;48.214;11.350;2023-07-29T15:54:15;20.70;66.40
1025;DHT22;501;48.214;11.350;2023-07-29T15:56:41;20.70;65.60
1025;DHT22;501;48.214;11.350;2023-07-29T15:59:07;20.80;63.80
1025;DHT22;501;48.214;11.350;2023-07-29T16:01:33;20.80;64.10
1025;DHT22;501;48.214;11.350;2023-07-29T16:03:59;20.80;66.10
1025;DHT22;501;48.214;11.350;2023-07-29T16:06:25;20.90;69.10
1025;DHT22;501;48.214;11.350;2023-07-29T16:08:52;21.00;66.90
1025;DHT22;501;48.214;11.350;2023-07-29T16:11:17;21.00;67.80
1025;DHT22;501;48.214;11.350;2023-07-29T16:13:43;21.10;70.20
1025;DHT22;501;48.214;11.350;2023-07-29T16:16:09;21.20;72.30
1025;DHT22;501;48.214;11.350;2023-07-29T16:18:35;21.20;70.40
1025;DHT22;501;48.214;11.350;2023-07-29T16:21:01;21.30;68.60
1025;DHT22;501;48.214;11.350;2023-07-29T16:23:31;21.30;68.10